createdAt,value
2019-03-31T00:00:01.162Z,123.58
2019-03-31T00:02:31.201Z,114.97
2019-03-31T00:05:04.010Z,117.22
2019-03-31T00:07:34.451Z,110.42
2019-03-31T00:10:08.386Z,103.60
2019-03-31T00:12:38.316Z,112.15
2019-03-31T00:15:09.043Z,118.00
2019-03-31T00:17:38.964Z,112.90
2019-03-31T00:20:09.149Z,122.85
2019-03-31T00:22:38.978Z,116.95
2019-03-31T00:25:08.894Z,122.70
2019-03-31T00:27:38.794Z,117.28
2019-03-31T00:30:13.220Z,120.80
2019-03-31T00:32:43.072Z,129.65
2019-03-31T00:35:12.884Z,119.90
2019-03-31T00:37:43.369Z,120.28
2019-03-31T00:40:13.378Z,117.25
2019-03-31T00:42:44.559Z,117.95
2019-03-31T00:45:14.883Z,125.47
2019-03-31T00:47:45.268Z,118.30
2019-03-31T00:50:15.719Z,126.62
2019-03-31T00:52:45.626Z,130.55
2019-03-31T00:55:15.800Z,124.20
2019-03-31T00:57:45.702Z,121.85
2019-03-31T01:00:38.775Z,115.32
2019-03-31T01:03:08.733Z,117.93
2019-03-31T01:05:41.031Z,124.82
2019-03-31T01:08:11.310Z,126.22
2019-03-31T01:10:42.176Z,131.18
2019-03-31T01:13:12.580Z,122.82
2019-03-31T01:15:44.057Z,115.72
2019-03-31T01:18:15.147Z,121.20
2019-03-31T01:20:45.289Z,114.65
2019-03-31T01:23:15.183Z,116.73
2019-03-31T01:25:45.162Z,117.13
2019-03-31T01:28:15.039Z,116.47
2019-03-31T01:30:45.034Z,135.15
2019-03-31T01:33:15.355Z,125.05
2019-03-31T01:35:45.192Z,130.70
2019-03-31T01:38:15.046Z,124.35
2019-03-31T01:40:44.831Z,122.17
2019-03-31T01:43:14.724Z,121.35
2019-03-31T01:45:45.646Z,125.58
2019-03-31T01:48:15.759Z,118.55
2019-03-31T01:50:45.971Z,126.78
2019-03-31T01:53:15.925Z,119.25
2019-03-31T01:55:45.795Z,131.35
2019-03-31T01:58:15.793Z,128.47
2019-03-31T02:00:47.606Z,133.52
2019-03-31T02:03:17.586Z,139.68
2019-03-31T02:05:47.439Z,127.38
2019-03-31T02:08:18.176Z,132.55
2019-03-31T02:10:48.607Z,144.90
2019-03-31T02:13:18.524Z,140.18
2019-03-31T02:15:49.083Z,144.15
2019-03-31T02:18:18.931Z,141.07
2019-03-31T02:20:48.769Z,143.72
2019-03-31T02:23:18.956Z,151.10
2019-03-31T02:25:48.830Z,140.57
2019-03-31T02:28:18.670Z,135.22
2019-03-31T02:30:49.607Z,151.95
2019-03-31T02:33:19.542Z,150.03
2019-03-31T02:35:49.577Z,142.75
2019-03-31T02:38:20.279Z,144.40
2019-03-31T02:40:50.112Z,155.40
2019-03-31T02:43:19.921Z,153.30
2019-03-31T02:45:49.807Z,163.22
2019-03-31T02:48:20.873Z,154.05
2019-03-31T02:50:52.825Z,156.60
2019-03-31T02:53:24.313Z,160.88
2019-03-31T02:55:57.134Z,153.25
2019-03-31T02:58:29.591Z,156.02
2019-03-31T03:00:59.881Z,154.63
2019-03-31T03:03:32.353Z,159.05
2019-03-31T03:06:05.354Z,164.65
2019-03-31T03:08:40.291Z,167.05
2019-03-31T03:12:09.485Z,164.88
2019-03-31T03:14:40.091Z,150.12
2019-03-31T03:17:09.896Z,156.82
2019-03-31T03:19:39.756Z,148.22
2019-03-31T03:22:10.307Z,159.12
2019-03-31T03:24:40.188Z,165.55
2019-03-31T03:27:10.146Z,174.53
2019-03-31T03:29:39.904Z,153.80
2019-03-31T03:32:09.796Z,161.70
2019-03-31T03:34:39.706Z,145.00
2019-03-31T03:37:09.567Z,155.15
2019-03-31T03:39:39.380Z,148.22
2019-03-31T03:42:09.655Z,150.12
2019-03-31T03:44:40.258Z,165.03
2019-03-31T03:47:10.800Z,151.07
2019-03-31T03:49:40.681Z,150.93
2019-03-31T03:52:12.558Z,150.90
2019-03-31T03:54:42.556Z,159.22
2019-03-31T03:57:12.417Z,136.62
2019-03-31T03:59:42.481Z,153.87
2019-03-31T04:02:12.349Z,135.37
2019-03-31T04:04:42.184Z,131.05
2019-03-31T04:07:12.784Z,134.32
2019-03-31T04:09:43.474Z,120.00
2019-03-31T04:12:14.150Z,110.92
2019-03-31T04:14:45.404Z,124.00
2019-03-31T04:17:15.363Z,118.62
2019-03-31T04:19:45.093Z,114.20
2019-03-31T04:22:15.981Z,120.33
2019-03-31T04:24:45.928Z,126.95
2019-03-31T04:27:18.941Z,123.85
2019-03-31T04:29:47.377Z,122.37
2019-03-31T04:32:17.248Z,114.40
2019-03-31T04:34:47.910Z,116.75
2019-03-31T04:37:18.021Z,106.72
2019-03-31T04:39:49.342Z,110.28
2019-03-31T04:42:19.289Z,118.45
2019-03-31T04:44:50.644Z,112.08
2019-03-31T04:47:20.645Z,104.17
2019-03-31T04:49:50.503Z,108.25
2019-03-31T04:52:20.281Z,93.70
2019-03-31T04:54:50.473Z,91.15
2019-03-31T04:57:20.270Z,80.35
2019-03-31T04:59:50.038Z,78.55
2019-03-31T05:02:19.918Z,77.08
2019-03-31T05:04:49.904Z,79.25
2019-03-31T05:07:20.303Z,78.92
2019-03-31T05:09:50.466Z,75.62
2019-03-31T05:12:21.301Z,71.87
2019-03-31T05:14:52.019Z,70.28
2019-03-31T05:17:22.157Z,68.35
2019-03-31T05:19:53.472Z,66.82
2019-03-31T05:22:25.612Z,67.67
2019-03-31T05:30:48.599Z,64.20
2019-03-31T05:33:24.610Z,70.52
2019-03-31T05:36:01.889Z,71.57
2019-03-31T05:38:39.563Z,66.40
2019-03-31T05:41:18.437Z,67.05
2019-03-31T05:44:05.570Z,70.32
2019-03-31T05:49:31.953Z,63.95
2019-03-31T05:52:21.478Z,62.38
2019-03-31T05:57:48.444Z,65.17
2019-03-31T06:00:53.951Z,75.37
2019-03-31T06:06:20.235Z,70.90
2019-03-31T06:09:03.084Z,72.03
2019-03-31T06:11:33.649Z,70.00
2019-03-31T06:17:39.277Z,65.40
2019-03-31T06:23:24.148Z,65.60
2019-03-31T06:32:18.619Z,65.22
2019-03-31T06:35:00.392Z,57.88
2019-03-31T06:37:52.086Z,62.78
2019-03-31T06:40:31.397Z,56.75
2019-03-31T06:43:05.934Z,59.95
2019-03-31T06:45:44.744Z,61.90
2019-03-31T06:48:19.241Z,56.25
2019-03-31T06:50:49.769Z,55.15
2019-03-31T06:53:19.795Z,57.70
2019-03-31T06:56:06.325Z,58.17
2019-03-31T06:58:52.260Z,55.38
2019-03-31T07:01:26.756Z,53.08
2019-03-31T07:03:56.891Z,55.55
2019-03-31T07:06:26.796Z,59.13
2019-03-31T07:08:56.621Z,55.95
2019-03-31T07:11:27.040Z,51.50
2019-03-31T07:13:57.133Z,53.35
2019-03-31T07:16:27.768Z,55.25
2019-03-31T07:18:58.242Z,56.83
2019-03-31T07:21:29.253Z,51.15
2019-03-31T07:24:00.016Z,53.55
2019-03-31T07:26:30.226Z,49.88
2019-03-31T07:29:00.149Z,56.02
2019-03-31T07:31:33.340Z,52.85
2019-03-31T07:34:04.964Z,57.95
2019-03-31T07:36:42.792Z,55.45
2019-03-31T07:39:16.755Z,51.58
2019-03-31T07:41:48.202Z,49.33
2019-03-31T07:44:20.006Z,46.65
2019-03-31T07:46:52.275Z,44.13
2019-03-31T07:49:24.588Z,49.38
2019-03-31T07:51:55.592Z,48.95
2019-03-31T07:54:26.035Z,54.77
2019-03-31T07:56:56.016Z,49.63
2019-03-31T07:59:26.049Z,48.95
2019-03-31T08:02:15.519Z,48.58
2019-03-31T08:04:45.486Z,46.30
2019-03-31T08:07:17.455Z,43.25
2019-03-31T08:09:48.228Z,46.25
2019-03-31T08:12:20.158Z,45.20
2019-03-31T08:14:50.027Z,39.03
2019-03-31T08:17:20.422Z,42.15
2019-03-31T08:19:50.207Z,41.35
2019-03-31T08:22:24.831Z,40.63
2019-03-31T08:24:57.170Z,38.88
2019-03-31T08:27:47.391Z,34.13
2019-03-31T08:30:20.052Z,35.65
2019-03-31T08:33:07.978Z,35.45
2019-03-31T08:35:47.384Z,36.63
2019-03-31T08:38:10.049Z,34.35
2019-03-31T08:40:39.879Z,43.28
2019-03-31T08:43:19.790Z,23.50
2019-03-31T08:45:51.238Z,29.20
2019-03-31T08:48:21.147Z,27.58
2019-03-31T08:50:50.978Z,28.80
2019-03-31T08:53:20.861Z,31.65
2019-03-31T08:55:50.879Z,24.70
2019-03-31T08:58:21.480Z,25.95
2019-03-31T09:00:56.422Z,25.15
2019-03-31T09:03:27.299Z,30.80
2019-03-31T09:06:02.070Z,24.90
2019-03-31T09:08:28.808Z,31.95
2019-03-31T09:10:59.511Z,25.15
2019-03-31T09:13:29.810Z,24.82
2019-03-31T09:16:00.442Z,24.05
2019-03-31T09:18:30.252Z,21.87
2019-03-31T09:21:00.212Z,18.62
2019-03-31T09:23:30.129Z,20.92
2019-03-31T09:26:00.545Z,21.00
2019-03-31T09:28:30.329Z,21.02
2019-03-31T09:31:00.094Z,19.50
2019-03-31T09:33:30.309Z,17.67
2019-03-31T09:36:14.891Z,22.62
2019-03-31T09:38:32.187Z,20.85
2019-03-31T09:41:02.100Z,18.80
2019-03-31T09:43:32.709Z,19.50
2019-03-31T09:46:02.594Z,21.65
2019-03-31T09:48:32.476Z,19.50
2019-03-31T09:51:02.331Z,16.32
2019-03-31T09:53:32.177Z,17.48
2019-03-31T09:56:02.075Z,20.85
2019-03-31T09:58:32.098Z,15.83
2019-03-31T10:01:01.911Z,15.95
2019-03-31T10:03:31.769Z,15.55
2019-03-31T10:06:10.474Z,18.37
2019-03-31T10:08:33.258Z,16.17
2019-03-31T10:11:03.213Z,16.55
2019-03-31T10:13:32.997Z,16.10
2019-03-31T10:16:03.820Z,17.30
2019-03-31T10:18:33.771Z,18.20
2019-03-31T10:21:06.229Z,17.12
2019-03-31T10:23:37.057Z,14.50
2019-03-31T10:26:06.909Z,14.93
2019-03-31T10:28:36.820Z,15.35
2019-03-31T10:31:06.804Z,12.37
2019-03-31T10:33:36.722Z,16.17
2019-03-31T10:36:12.700Z,13.10
2019-03-31T10:38:41.229Z,14.05
2019-03-31T10:41:16.570Z,16.80
2019-03-31T10:43:46.478Z,16.12
2019-03-31T10:46:16.299Z,16.32
2019-03-31T10:48:46.129Z,16.73
2019-03-31T10:51:17.175Z,16.80
2019-03-31T10:53:47.055Z,16.62
2019-03-31T10:56:17.728Z,12.90
2019-03-31T10:58:47.606Z,14.07
2019-03-31T11:01:19.089Z,22.20
2019-03-31T11:03:50.403Z,13.38
2019-03-31T11:06:23.004Z,15.28
2019-03-31T11:08:53.218Z,15.38
2019-03-31T11:11:23.888Z,14.43
2019-03-31T11:13:53.752Z,13.25
2019-03-31T11:16:24.610Z,15.35
2019-03-31T11:18:54.394Z,15.05
2019-03-31T11:21:25.864Z,15.80
2019-03-31T11:23:56.591Z,13.95
2019-03-31T11:26:26.359Z,15.48
2019-03-31T11:28:57.730Z,14.10
2019-03-31T11:31:28.477Z,15.50
2019-03-31T11:33:58.411Z,15.10
2019-03-31T11:36:29.101Z,13.60
2019-03-31T11:38:58.943Z,11.97
2019-03-31T11:41:28.883Z,15.35
2019-03-31T11:43:59.525Z,15.70
2019-03-31T11:46:29.370Z,17.23
2019-03-31T11:49:01.147Z,14.23
2019-03-31T11:51:30.873Z,12.85
2019-03-31T11:54:01.239Z,13.55
2019-03-31T11:56:31.773Z,14.63
2019-03-31T11:59:01.633Z,12.80
2019-03-31T12:01:31.502Z,14.70
2019-03-31T12:04:01.691Z,13.45
2019-03-31T12:21:01.934Z,10.38
2019-03-31T12:47:25.237Z,8.28
2019-03-31T12:53:12.334Z,8.60
2019-03-31T13:02:21.941Z,6.33
2019-03-31T13:05:24.818Z,10.63
2019-03-31T13:19:40.327Z,7.45
2019-03-31T13:22:10.257Z,8.00
2019-03-31T13:24:40.911Z,10.15
2019-03-31T13:27:11.347Z,11.60
2019-03-31T13:29:41.178Z,7.20
2019-03-31T13:32:10.999Z,6.65
2019-03-31T13:34:40.802Z,6.83
2019-03-31T13:37:11.237Z,6.67
2019-03-31T13:39:41.187Z,7.22
2019-03-31T13:42:10.982Z,6.08
2019-03-31T13:44:40.840Z,10.55
2019-03-31T13:47:10.652Z,6.87
2019-03-31T13:49:40.570Z,8.30
2019-03-31T13:52:10.415Z,5.05
2019-03-31T13:54:42.978Z,8.00
2019-03-31T13:57:13.710Z,7.97
2019-03-31T13:59:44.028Z,10.03
2019-03-31T14:02:14.314Z,12.00
2019-03-31T14:04:54.960Z,6.37
2019-03-31T14:07:24.877Z,9.30
2019-03-31T14:09:54.781Z,7.83
2019-03-31T14:12:24.641Z,6.83
2019-03-31T14:17:52.795Z,7.10
2019-03-31T14:20:24.301Z,9.15
2019-03-31T14:22:54.946Z,9.03
2019-03-31T14:25:24.792Z,7.17
2019-03-31T14:27:54.645Z,8.83
2019-03-31T14:30:24.966Z,10.53
2019-03-31T14:32:59.944Z,12.30
2019-03-31T14:35:30.055Z,8.95
2019-03-31T14:37:59.939Z,7.78
2019-03-31T14:40:29.745Z,8.40
2019-03-31T14:42:59.718Z,11.12
2019-03-31T14:45:32.435Z,8.00
2019-03-31T14:48:03.103Z,9.15
2019-03-31T14:50:38.189Z,11.30
2019-03-31T14:53:08.977Z,9.05
2019-03-31T14:55:39.650Z,11.60
2019-03-31T14:58:09.694Z,12.13
2019-03-31T15:00:39.725Z,14.85
2019-03-31T15:03:09.809Z,7.08
2019-03-31T15:05:43.473Z,13.13
2019-03-31T15:08:13.951Z,9.00
2019-03-31T15:10:43.828Z,8.63
2019-03-31T15:13:13.650Z,9.75
2019-03-31T15:15:43.489Z,8.20
2019-03-31T15:18:13.446Z,6.12
2019-03-31T15:20:43.256Z,9.63
2019-03-31T15:23:13.066Z,8.35
2019-03-31T15:25:44.441Z,8.95
2019-03-31T15:28:14.274Z,9.48
2019-03-31T15:30:43.982Z,8.95
2019-03-31T15:33:13.886Z,9.68
2019-03-31T15:35:44.692Z,9.45
2019-03-31T15:38:14.492Z,9.25
2019-03-31T15:40:44.310Z,12.18
2019-03-31T15:43:14.152Z,12.63
2019-03-31T15:45:43.881Z,6.20
2019-03-31T15:48:13.671Z,8.68
2019-03-31T15:50:43.486Z,9.10
2019-03-31T15:53:13.228Z,9.63
2019-03-31T15:55:43.532Z,10.55
2019-03-31T15:58:13.318Z,9.68
2019-03-31T16:00:43.131Z,7.67
2019-03-31T16:03:12.953Z,11.05
2019-03-31T16:05:42.706Z,11.85
2019-03-31T16:08:14.115Z,12.95
2019-03-31T16:10:43.937Z,8.50
2019-03-31T16:13:13.673Z,10.10
2019-03-31T16:15:43.489Z,12.60
2019-03-31T16:18:15.420Z,12.68
2019-03-31T16:20:45.057Z,11.93
2019-03-31T16:23:14.766Z,11.18
2019-03-31T16:25:47.582Z,10.55
2019-03-31T16:28:17.409Z,9.83
2019-03-31T16:30:47.226Z,13.40
2019-03-31T16:33:18.715Z,8.98
2019-03-31T16:35:48.467Z,10.50
2019-03-31T16:38:18.368Z,9.53
2019-03-31T16:40:48.364Z,12.45
2019-03-31T16:43:18.379Z,11.43
2019-03-31T16:45:48.146Z,14.10
2019-03-31T16:48:17.924Z,10.68
2019-03-31T16:50:47.650Z,12.63
2019-03-31T16:53:17.469Z,12.33
2019-03-31T16:55:47.176Z,16.45
2019-03-31T16:58:17.001Z,10.00
2019-03-31T17:00:46.737Z,13.78
2019-03-31T17:03:18.239Z,9.30
2019-03-31T17:05:47.950Z,10.82
2019-03-31T17:08:17.736Z,12.40
2019-03-31T17:10:47.526Z,11.78
2019-03-31T17:13:17.320Z,12.55
2019-03-31T17:15:47.128Z,14.93
2019-03-31T17:18:16.931Z,9.68
2019-03-31T17:20:46.764Z,8.98
2019-03-31T17:23:17.718Z,14.53
2019-03-31T17:25:47.437Z,15.75
2019-03-31T17:28:17.557Z,10.78
2019-03-31T17:30:47.666Z,7.05
2019-03-31T17:33:18.606Z,11.15
2019-03-31T17:35:48.474Z,13.85
2019-03-31T17:38:20.750Z,11.18
2019-03-31T17:40:50.481Z,9.60
2019-03-31T17:43:22.796Z,13.60
2019-03-31T17:45:54.228Z,11.53
2019-03-31T17:48:24.835Z,15.85
2019-03-31T17:50:54.709Z,11.40
2019-03-31T17:53:24.557Z,9.23
2019-03-31T17:55:55.275Z,11.28
2019-03-31T17:58:25.050Z,12.82
2019-03-31T18:00:54.867Z,12.75
2019-03-31T18:03:24.743Z,6.97
2019-03-31T18:05:54.622Z,11.80
2019-03-31T18:08:24.547Z,12.68
2019-03-31T18:10:54.444Z,10.48
2019-03-31T18:13:27.944Z,14.03
2019-03-31T18:15:58.785Z,18.27
2019-03-31T18:18:29.369Z,13.03
2019-03-31T18:20:59.202Z,16.05
2019-03-31T18:23:29.420Z,13.00
2019-03-31T18:25:59.282Z,14.23
2019-03-31T18:28:29.121Z,14.50
2019-03-31T18:30:59.790Z,16.70
2019-03-31T18:33:29.789Z,12.53
2019-03-31T18:36:00.498Z,11.08
2019-03-31T18:38:30.268Z,12.00
2019-03-31T18:41:06.944Z,11.93
2019-03-31T18:43:50.613Z,15.40
2019-03-31T18:46:10.083Z,13.18
2019-03-31T18:48:40.070Z,12.70
2019-03-31T18:51:11.791Z,13.53
2019-03-31T18:53:43.197Z,11.25
2019-03-31T18:56:20.373Z,11.53
2019-03-31T18:59:00.888Z,14.35
2019-03-31T19:01:45.376Z,15.72
2019-03-31T19:04:25.852Z,13.50
2019-03-31T19:07:04.059Z,11.10
2019-03-31T19:09:35.685Z,12.15
2019-03-31T19:12:12.893Z,13.20
2019-03-31T19:14:47.039Z,10.48
2019-03-31T19:17:18.796Z,15.23
2019-03-31T19:19:53.293Z,12.03
2019-03-31T19:22:33.588Z,12.63
2019-03-31T19:25:11.117Z,15.63
2019-03-31T19:30:31.362Z,15.45
2019-03-31T19:33:05.471Z,11.53
2019-03-31T19:35:36.934Z,11.65
2019-03-31T19:38:13.860Z,10.65
2019-03-31T19:41:04.001Z,17.25
2019-03-31T19:43:47.360Z,9.78
2019-03-31T19:46:21.510Z,11.95
2019-03-31T19:49:04.744Z,10.98
2019-03-31T19:51:42.211Z,11.48
2019-03-31T19:56:56.422Z,11.25
2019-03-31T19:59:27.839Z,16.57
2019-03-31T20:02:14.399Z,9.90
2019-03-31T20:05:01.993Z,9.38
2019-03-31T20:07:36.442Z,13.28
2019-03-31T20:10:24.262Z,14.18
2019-03-31T20:12:55.643Z,16.62
2019-03-31T20:15:29.814Z,9.58
2019-03-31T20:18:01.196Z,12.13
2019-03-31T20:20:35.427Z,17.37
2019-03-31T20:23:09.814Z,14.10
2019-03-31T20:25:49.905Z,9.73
2019-03-31T20:28:21.346Z,10.80
2019-03-31T20:31:04.616Z,13.88
2019-03-31T20:33:36.624Z,11.15
2019-03-31T20:36:09.828Z,13.43
2019-03-31T20:38:41.223Z,11.68
2019-03-31T20:41:12.629Z,9.35
2019-03-31T20:43:53.809Z,12.65
2019-03-31T20:46:24.770Z,11.03
2019-03-31T20:48:54.557Z,9.45
2019-03-31T20:51:24.631Z,12.25
2019-03-31T20:53:54.417Z,15.38
2019-03-31T20:56:25.884Z,10.75
2019-03-31T20:58:55.674Z,9.75
2019-03-31T21:01:25.599Z,15.90
2019-03-31T21:03:55.412Z,16.32
2019-03-31T21:06:27.386Z,9.90
2019-03-31T21:08:57.160Z,12.85
2019-03-31T21:11:26.893Z,10.15
2019-03-31T21:13:57.182Z,9.20
2019-03-31T21:16:27.490Z,11.28
2019-03-31T21:18:57.268Z,13.93
2019-03-31T21:21:27.066Z,14.33
2019-03-31T21:23:56.949Z,10.30
2019-03-31T21:26:26.685Z,13.18
2019-03-31T21:28:56.467Z,12.13
2019-03-31T21:31:26.220Z,15.78
2019-03-31T21:33:56.363Z,13.70
2019-03-31T21:36:26.835Z,11.65
2019-03-31T21:38:56.748Z,11.73
2019-03-31T21:41:26.516Z,12.03
2019-03-31T21:43:56.722Z,15.10
2019-03-31T21:46:26.604Z,13.88
2019-03-31T21:48:56.329Z,11.03
2019-03-31T21:51:28.931Z,10.48
2019-03-31T21:53:58.870Z,15.05
2019-03-31T21:56:28.700Z,12.93
2019-03-31T21:58:58.497Z,11.45
2019-03-31T22:01:28.243Z,17.57
2019-03-31T22:03:58.116Z,13.65
2019-03-31T22:06:27.834Z,11.57
2019-03-31T22:08:57.681Z,14.03
2019-03-31T22:11:27.748Z,11.65
2019-03-31T22:13:57.532Z,12.28
2019-03-31T22:16:27.243Z,13.00
2019-03-31T22:18:56.892Z,16.37
2019-03-31T22:21:26.639Z,17.50
2019-03-31T22:23:58.087Z,16.00
2019-03-31T22:26:28.205Z,14.00
2019-03-31T22:28:58.086Z,14.38
2019-03-31T22:31:27.866Z,13.93
2019-03-31T22:33:58.249Z,16.02
2019-03-31T22:36:27.971Z,13.25
2019-03-31T22:38:58.619Z,13.93
2019-03-31T22:41:28.466Z,9.55
2019-03-31T22:43:59.171Z,11.97
2019-03-31T22:46:28.835Z,15.90
2019-03-31T22:48:58.838Z,14.20
2019-03-31T22:51:29.410Z,11.60
2019-03-31T22:53:59.197Z,12.70
2019-03-31T22:56:28.994Z,15.15
2019-03-31T22:58:58.698Z,14.85
2019-03-31T23:01:28.560Z,10.48
2019-03-31T23:03:59.467Z,16.00
2019-03-31T23:06:29.139Z,18.73
2019-03-31T23:08:59.091Z,10.93
2019-03-31T23:11:28.935Z,11.85
2019-03-31T23:13:58.758Z,10.13
2019-03-31T23:16:28.424Z,13.00
2019-03-31T23:18:58.234Z,12.88
2019-03-31T23:21:29.512Z,18.20
2019-03-31T23:23:59.971Z,16.65
2019-03-31T23:26:29.758Z,13.68
2019-03-31T23:28:59.489Z,10.60
2019-03-31T23:31:30.041Z,10.75
2019-03-31T23:33:59.779Z,20.95
2019-03-31T23:36:29.528Z,12.88
2019-03-31T23:38:59.480Z,13.22
2019-03-31T23:41:29.218Z,13.98
2019-03-31T23:43:59.030Z,15.53
2019-03-31T23:46:28.786Z,10.65
2019-03-31T23:48:58.508Z,12.05
2019-03-31T23:51:28.810Z,16.32
2019-03-31T23:53:58.547Z,15.23
2019-03-31T23:56:29.277Z,19.10
2019-03-31T23:58:59.099Z,13.68
